• Join FlightAware (Why Join?)
  • Login
  • US Flag 
12:39AM EDT


 

Airport Tracker/Info


-or-


 

Live Flight TrackerFlight Track Log ✈ AWE1746 ✈ 18-Aug-2014 ✈ KORD - KPHL

Flight Track Log - Related Links

Times and Time Zones

All times are in EDT time to prevent confusion due to time zone crossing. See the AWE1746 flight status page for this flight to view local times or setup timezone preferences in your user account.

Time Position Orientation Groundspeed Altitude Reporting Facility
EDT Latitude Longitude Course Direction KTS MPH feet Rate Location/Type
08:40AM 41.9500 -87.9167 90° East 174 200 1,400  Level Chicago TRACON
08:41AM 41.9000 -87.8833 167° South 186 214 3,200 1,500 Climbing Chicago TRACON
08:42AM 41.8667 -87.8333 132° Southeast 224 258 4,300 1,260 Climbing Chicago TRACON
08:43AM 41.9500 -87.4007 90° East  Level FlightAware Approximate
08:43AM 41.8358 -87.7947 137° Southeast 249 287 5,100  Level Chicago Center
08:44AM 41.9399 -87.2345 96° East  Level FlightAware Approximate
08:44AM 41.7983 -87.7078 120° Southeast 288 331 7,800  Level Chicago Center
08:45AM 41.9333 -87.0680 90° East  Level FlightAware Approximate
08:45AM 41.8203 -87.5958 75° East 290 334 10,400  Level Chicago Center
08:46AM 41.9333 -86.9012 90° East  Level FlightAware Approximate
08:46AM 41.8472 -87.4856 72° East 309 356 12,600  Level Chicago Center
08:47AM 41.8764 -87.3617 72° East 322 371 14,900 1,680 Climbing Chicago Center
08:48AM 41.9053 -87.2406 72° East 343 395 16,100 1,080 Climbing Chicago Center
08:49AM 41.9367 -87.1053 73° East 379 436 17,200 1,320 Climbing Chicago Center
08:50AM 41.9469 -86.9731 84° East 398 458 18,900 1,620 Climbing Chicago Center
08:51AM 41.9489 -86.7894 89° East 408 470 20,600 1,500 Climbing Chicago Center
08:52AM 41.9517 -86.6467 88° East 418 481 22,000 1,260 Climbing Chicago Center
08:53AM 41.9522 -86.4856 90° East 427 491 23,300 1,320 Climbing Chicago Center
08:54AM 41.9553 -86.3211 89° East 438 504 24,800 1,560 Climbing Chicago Center
08:55AM 41.9478 -86.1233 93° East 440 506 26,600 1,440 Climbing Chicago Center
08:56AM 41.9317 -85.9592 97° East 443 510 27,800 1,080 Climbing Chicago Center
08:57AM 41.9167 -85.7903 97° East 450 518 28,900 960 Climbing Chicago Center
08:58AM 41.9003 -85.6158 97° East 461 531 29,900 960 Climbing Chicago Center
08:59AM 41.8831 -85.4386 97° East 471 542 31,000 480 Climbing Chicago Center
09:00AM 41.8675 -85.2661 97° East 461 531 31,000  Level Chicago Center
09:01AM 41.8492 -85.0981 98° East 451 519 31,000  Level Chicago Center
09:02AM 41.8322 -84.9281 98° East 457 526 31,000  Level Chicago Center
09:03AM 41.8175 -84.7939 98° East 454 522 31,000  Level Cleveland Center
09:04AM 41.7994 -84.6239 98° East 456 525 31,000  Level Cleveland Center
09:05AM 41.7811 -84.4564 98° East 456 525 31,000  Level Cleveland Center
09:06AM 41.7772 -84.2533 91° East 456 525 31,000  Level Cleveland Center
09:07AM 41.7761 -84.1008 91° East 456 525 31,000  Level Cleveland Center
09:08AM 41.7747 -83.9308 91° East 457 526 31,000  Level Cleveland Center
09:09AM 41.7725 -83.7294 91° East 457 526 31,000  Level Cleveland Center
09:10AM 41.7711 -83.5614 91° East 457 526 31,000  Level Cleveland Center
09:11AM 41.7556 -83.3942 97° East 457 526 31,000  Level Cleveland Center
09:12AM 41.7392 -83.2267 97° East 457 526 31,000  Level Cleveland Center
09:14AM 41.7233 -83.0594 97° East 457 526 31,000  Level Cleveland Center
09:15AM 41.7033 -82.8589 98° East 457 526 31,000  Level Cleveland Center
09:16AM 41.6853 -82.6922 98° East 457 526 31,000  Level Cleveland Center
09:17AM 41.6681 -82.5258 98° East 457 526 31,000  Level Cleveland Center
09:18AM 41.6514 -82.3614 98° East 451 519 31,000  Level Cleveland Center
09:19AM 41.6342 -82.1978 98° East 449 517 31,000  Level Cleveland Center
09:20AM 41.6122 -82.0014 98° East 449 517 31,000  Level Cleveland Center
09:21AM 41.5956 -81.8367 98° East 448 516 31,000  Level Cleveland Center
09:22AM 41.5725 -81.6583 100° East 449 517 31,000  Level Cleveland Center
09:23AM 41.5556 -81.4917 98° East 450 518 31,000  Level Cleveland Center
09:24AM 41.5336 -81.3297 100° East 445 512 31,000  Level Cleveland Center
09:25AM 41.5003 -81.1683 105° East 449 517 31,000  Level Cleveland Center
09:26AM 41.4242 -81.0353 127° Southeast 450 518 31,000  Level Cleveland Center
09:27AM 41.3372 -80.9167 134° Southeast 450 518 31,000  Level Cleveland Center
09:28AM 41.2342 -80.7719 133° Southeast 450 518 31,000  Level Cleveland Center
09:29AM 41.1478 -80.6525 134° Southeast 449 517 31,000  Level Cleveland Center
09:30AM 41.0625 -80.5333 133° Southeast 448 516 31,000  Level Cleveland Center
09:31AM 40.9742 -80.4147 135° Southeast 449 517 31,000  Level Cleveland Center
09:32AM 40.8875 -80.2958 134° Southeast 450 518 31,000  Level Cleveland Center
09:33AM 40.8078 -80.1589 128° Southeast 451 519 31,000  Level Cleveland Center
09:34AM 40.7428 -79.9842 116° Southeast 452 520 31,000  Level Cleveland Center
09:35AM 40.6881 -79.8331 115° Southeast 453 521 31,000  Level Cleveland Center
09:36AM 40.6331 -79.6836 116° Southeast 452 520 31,000  Level Cleveland Center
09:37AM 40.5792 -79.5344 115° Southeast 451 519 31,000 -240 Level Cleveland Center
09:38AM 40.5533 -79.3725 102° East 451 519 30,600 -780 Descending Cleveland Center
09:39AM 40.5344 -79.1856 98° East 452 520 29,500 -1,020 Descending Cleveland Center
09:40AM 40.5175 -79.0261 98° East 450 518 28,500 -960 Descending Cleveland Center
09:42AM 40.5028 -78.8703 97° East 438 504 27,600 -960 Descending Cleveland Center
09:43AM 40.4853 -78.7161 98° East 435 501 26,600 -1,020 Descending Cleveland Center
09:44AM 40.4675 -78.5389 97° East 416 479 25,500 -780 Descending Cleveland Center
09:45AM 40.4533 -78.3928 97° East 411 473 25,000 -300 Descending Cleveland Center
09:46AM 40.4378 -78.2494 98° East 406 467 25,000  Level Cleveland Center
09:47AM 40.4219 -78.1053 98° East 405 466 25,000  Level Cleveland Center
09:48AM 40.4031 -77.9300 98° East 406 467 25,000  Level Cleveland Center
09:49AM 40.3850 -77.7736 99° East 437 503 25,000 -300 Level Cleveland Center
09:50AM 40.3658 -77.6042 98° East 469 540 24,500 -600 Descending Cleveland Center
09:51AM 40.3453 -77.4383 99° East 469 540 23,800 -840 Descending Cleveland Center
09:52AM 40.3264 -77.3108 101° East 464 534 23,000 -1,020 Descending New York Center
09:53AM 40.2967 -77.1283 102° East 464 534 22,000 -1,140 Descending New York Center
09:54AM 40.2697 -76.9681 102° East 459 528 20,800 -1,740 Descending New York Center
09:55AM 40.2486 -76.8139 100° East 446 513 18,600 -2,340 Descending New York Center
09:56AM 40.2283 -76.6789 101° East 429 494 16,200 -2,460 Descending New York Center
09:57AM 40.2028 -76.5164 102° East 416 479 13,600 -2,340 Descending New York Center
09:58AM 40.1825 -76.3761 101° East 411 473 11,700 -1,440 Descending New York Center
09:59AM 40.1617 -76.2439 102° East 381 438 10,800 -900 Descending New York Center
10:00AM 40.1458 -76.1339 101° East 350 403 9,900 -720 Descending New York Center
10:01AM 40.1278 -76.0239 102° East 326 375 9,400 -540 Descending New York Center
10:02AM 40.1064 -75.8975 102° East 320 368 8,900 -480 Descending New York Center
10:03AM 40.0897 -75.8014 103° East 315 362 8,500 -1,020 Descending New York Center
10:04AM 40.0781 -75.6811 97° East 315 362 6,900 -1,320 Descending New York Center
10:05AM 40.0736 -75.5831 93° East 305 351 6,000 -480 Descending New York Center
10:06AM 40.0658 -75.4658 95° East 295 339 6,000  Level New York Center
10:07AM 40.0614 -75.3681 93° East 295 339 6,000  Level New York Center
10:08AM 40.0556 -75.2536 94° East 295 339 6,000  Level New York Center
10:09AM 40.0406 -75.1522 101° East 283 326 6,000  Level New York Center
10:09AM 40.0333 -75.1000 100° East 255 293 6,000 -120 Level Philadelphia TRACON
10:10AM 40.0167 -75.0333 108° East 238 274 5,900 -780 Descending Philadelphia TRACON
10:11AM 40.0000 -74.9500 105° East 226 260 4,700 -1,380 Descending Philadelphia TRACON
10:12AM 39.9500 -74.9333 166° South 211 243 3,300 -780 Descending Philadelphia TRACON
10:13AM 39.9167 -74.9833 229° Southwest 174 200 3,200 -360 Descending Philadelphia TRACON
10:14AM 39.9167 -75.0500 270° West 168 193 2,600 -660 Descending Philadelphia TRACON
10:15AM 39.9000 -75.1000 247° West 171 197 1,900 -780 Descending Philadelphia TRACON
10:16AM 39.8833 -75.1667 252° West 153 176 1,000 -840 Descending Philadelphia TRACON
10:17AM 39.8833 -75.2167 270° West 139 160 200 -840 Descending Philadelphia TRACON